Time;durP1;ratioP1;P1;durP2;ratioP2;P2;SDS_P1;SDS_P2;PMS_P1;PMS_P2;Temp;Humidity;BMP_temperature;BMP_pressure;BME280_temperature;BME280_humidity;BME280_pressure;Samples;Min_cycle;Max_cycle;Signal;HPM_P1;HPM_P2
2023/12/02 00:01:18;;;;;;;;;12.50;11.25;;;;;20.09;38.34;100890.94;4974502;28;45352;-79
2023/12/02 00:03:44;;;;;;;;;9.75;9.75;;;;;20.00;38.53;100868.19;4957998;28;47176;-79
2023/12/02 00:06:10;;;;;;;;;9.50;8.75;;;;;20.03;38.75;100879.25;4958422;28;45298;-79
2023/12/02 00:08:35;;;;;;;;;11.25;7.50;;;;;20.07;38.19;100885.84;4958903;28;45406;-79
2023/12/02 00:11:00;;;;;;;;;11.00;9.75;;;;;20.08;38.45;100886.69;4958853;28;45441;-79
2023/12/02 00:13:26;;;;;;;;;10.00;9.75;;;;;20.07;38.67;100880.56;4958215;28;47618;-79
2023/12/02 00:15:51;;;;;;;;;10.50;8.00;;;;;20.07;38.21;100879.72;4958087;28;46713;-79
2023/12/02 00:18:16;;;;;;;;;9.75;9.75;;;;;20.03;38.00;100873.16;4957906;28;45299;-80
2023/12/02 00:20:41;;;;;;;;;10.75;10.00;;;;;20.05;38.11;100879.91;4957560;28;59040;-80
2023/12/02 00:23:07;;;;;;;;;10.33;9.33;;;;;19.98;38.19;100868.38;4957832;28;46243;-79
2023/12/02 00:25:32;;;;;;;;;6.00;6.00;;;;;19.93;38.02;100854.84;4958018;28;49398;-79
2023/12/02 00:27:58;;;;;;;;;10.25;9.75;;;;;20.01;38.68;100865.38;4958151;28;45351;-79
2023/12/02 00:30:23;;;;;;;;;9.50;8.50;;;;;20.04;37.82;100877.41;4958417;28;45388;-79
2023/12/02 00:32:48;;;;;;;;;10.00;8.50;;;;;20.03;38.28;100873.97;4957288;28;45495;-80
2023/12/02 00:35:15;;;;;;;;;8.75;8.75;;;;;19.91;38.40;100862.06;4963834;28;45432;-79
2023/12/02 00:37:40;;;;;;;;;9.33;8.67;;;;;19.76;38.05;100832.88;4976998;28;45875;-80
2023/12/02 00:40:06;;;;;;;;;9.00;9.00;;;;;20.03;38.11;100881.06;4977405;28;45350;-80
2023/12/02 00:42:32;;;;;;;;;10.00;10.00;;;;;19.87;37.90;100853.69;4977091;28;46295;-80
2023/12/02 00:44:57;;;;;;;;;10.50;10.00;;;;;19.83;37.99;100850.53;4977079;28;45375;-80
2023/12/02 00:47:22;;;;;;;;;10.00;9.00;;;;;19.85;37.76;100863.59;4977068;28;45352;-79
2023/12/02 00:49:48;;;;;;;;;8.75;8.75;;;;;19.80;38.04;100853.50;4975928;28;45515;-79
2023/12/02 00:52:13;;;;;;;;;10.25;10.25;;;;;19.16;37.93;100749.34;4976927;28;48055;-80
2023/12/02 00:54:38;;;;;;;;;10.75;9.50;;;;;19.89;37.94;100878.09;4977034;28;45355;-80
2023/12/02 00:57:04;;;;;;;;;10.50;9.00;;;;;20.00;37.68;100889.31;4977148;28;45314;-79
2023/12/02 00:59:29;;;;;;;;;8.75;7.75;;;;;19.99;37.70;100899.03;4977159;28;45290;-79
2023/12/02 01:01:55;;;;;;;;;8.33;7.67;;;;;19.95;37.93;100885.38;4976202;28;52571;-80
2023/12/02 01:04:20;;;;;;;;;10.75;10.25;;;;;19.98;37.87;100884.22;4977123;28;45366;-78
2023/12/02 01:06:45;;;;;;;;;8.25;8.25;;;;;19.89;37.78;100872.81;4977008;28;45345;-80
2023/12/02 01:09:11;;;;;;;;;11.25;9.75;;;;;19.97;37.85;100882.56;4976962;28;45266;-80
2023/12/02 01:11:36;;;;;;;;;7.75;7.50;;;;;19.68;37.83;100849.53;4976807;28;46423;-80
2023/12/02 01:14:01;;;;;;;;;10.50;10.00;;;;;19.91;37.66;100891.13;4991770;28;45320;-80
2023/12/02 01:16:27;;;;;;;;;9.67;7.67;;;;;19.82;38.03;100859.47;4976469;28;45645;-79
2023/12/02 01:18:52;;;;;;;;;11.00;10.50;;;;;19.85;37.79;100874.94;4976845;28;45284;-78
2023/12/02 01:21:18;;;;;;;;;9.50;9.50;;;;;19.96;37.78;100894.94;4976580;28;46149;-80
2023/12/02 01:23:43;;;;;;;;;12.25;10.00;;;;;19.91;37.93;100886.66;4976460;28;45293;-79
2023/12/02 01:26:08;;;;;;;;;10.00;10.00;;;;;19.82;37.93;100883.22;4976472;28;46634;-79
2023/12/02 01:28:34;;;;;;;;;8.25;8.25;;;;;19.94;37.67;100899.53;4976740;28;45385;-79
2023/12/02 01:30:59;;;;;;;;;9.00;9.00;;;;;19.91;37.83;100899.03;4976030;28;46312;-80
2023/12/02 01:33:24;;;;;;;;;14.00;11.50;;;;;19.90;37.71;100898.25;4976207;28;45312;-81
2023/12/02 01:35:50;;;;;;;;;12.00;11.00;;;;;19.77;37.82;100885.53;4976379;28;45332;-80
2023/12/02 01:38:15;;;;;;;;;11.00;9.75;;;;;19.94;37.70;100919.84;4976396;28;45307;-80
2023/12/02 01:40:40;;;;;;;;;10.75;9.00;;;;;19.88;37.51;100908.13;4991451;28;46126;-81
2023/12/02 01:43:06;;;;;;;;;11.00;10.50;;;;;19.81;37.71;100900.03;4976289;28;45433;-80
2023/12/02 01:45:31;;;;;;;;;10.75;9.50;;;;;19.93;37.79;100915.56;4991110;28;46850;-80
2023/12/02 01:47:58;;;;;;;;;9.00;8.00;;;;;19.92;37.66;100922.66;4976361;28;45386;-79
2023/12/02 01:50:24;;;;;;;;;10.00;10.00;;;;;19.81;37.61;100909.75;4976170;28;47120;-80
2023/12/02 01:52:49;;;;;;;;;10.50;10.25;;;;;19.91;37.30;100933.38;4976020;28;45333;-80
2023/12/02 01:55:15;;;;;;;;;8.00;8.00;;;;;19.91;37.66;100928.09;4976263;28;45408;-80
2023/12/02 01:57:40;;;;;;;;;11.00;10.00;;;;;19.87;37.75;100930.25;4976300;28;45340;-80
2023/12/02 02:00:07;;;;;;;;;12.00;11.25;;;;;19.87;37.26;100932.06;4975849;28;45411;-80
2023/12/02 02:02:32;;;;;;;;;12.25;9.50;;;;;19.89;37.72;100944.09;4976206;28;45321;-78
2023/12/02 02:04:57;;;;;;;;;10.00;9.33;;;;;19.70;37.52;100921.47;4976343;28;45224;-80
2023/12/02 02:07:25;;;;;;;;;11.00;9.00;;;;;19.79;37.74;100938.97;4976302;28;45541;-80
2023/12/02 02:09:51;;;;;;;;;13.25;10.25;;;;;19.90;37.65;100958.16;4976158;28;45400;-78
2023/12/02 02:12:16;;;;;;;;;11.75;8.00;;;;;19.87;37.44;100954.00;4975834;28;47225;-78
2023/12/02 02:14:42;;;;;;;;;11.00;10.75;;;;;19.77;37.72;100940.97;4976081;28;45333;-79
2023/12/02 02:17:08;;;;;;;;;14.00;12.00;;;;;19.75;37.76;100928.91;4976095;28;45317;-79
2023/12/02 02:19:33;;;;;;;;;10.75;9.50;;;;;19.90;37.33;100956.34;4976012;28;45382;-80
2023/12/02 02:21:59;;;;;;;;;12.00;11.25;;;;;19.89;37.68;100967.03;4975938;28;45307;-79
2023/12/02 02:24:24;;;;;;;;;13.00;11.25;;;;;19.89;37.67;100962.59;4976008;28;45392;-79
2023/12/02 02:26:49;;;;;;;;;14.75;11.25;;;;;19.88;37.53;100966.22;4976193;28;45286;-80
2023/12/02 02:29:15;;;;;;;;;10.50;9.00;;;;;19.80;37.52;100961.75;4975477;28;46121;-78
2023/12/02 02:31:40;;;;;;;;;10.50;10.00;;;;;19.71;37.33;100945.06;4975791;28;45274;-79
2023/12/02 02:34:05;;;;;;;;;14.25;12.00;;;;;19.86;37.52;100968.19;4975724;28;45369;-78
2023/12/02 02:36:31;;;;;;;;;10.00;10.00;;;;;19.69;37.96;100939.13;4977386;28;45507;-79
2023/12/02 02:38:56;;;;;;;;;12.00;10.75;;;;;19.83;37.49;100965.88;4979002;28;46239;-80
2023/12/02 02:41:21;;;;;;;;;8.75;8.00;;;;;19.67;37.47;100948.22;4979029;28;45281;-80
2023/12/02 02:43:47;;;;;;;;;8.75;8.75;;;;;19.85;37.57;100977.13;4993633;28;49950;-79
2023/12/02 02:46:15;;;;;;;;;12.00;11.00;;;;;19.75;37.66;100961.41;4979335;28;45349;-77
2023/12/02 02:48:40;;;;;;;;;10.75;10.00;;;;;19.78;37.23;100969.00;4978958;28;45363;-79
2023/12/02 02:51:06;;;;;;;;;10.75;10.00;;;;;19.84;37.30;100978.94;4978419;28;56137;-79
2023/12/02 02:53:31;;;;;;;;;11.00;9.25;;;;;19.85;37.51;100990.31;4979025;28;45416;-79
2023/12/02 02:55:56;;;;;;;;;12.00;11.00;;;;;19.76;37.57;100981.53;4978616;28;50423;-80
2023/12/02 02:58:22;;;;;;;;;16.00;11.50;;;;;19.72;37.27;100969.66;4978376;28;46250;-79
2023/12/02 03:00:47;;;;;;;;;6.50;6.50;;;;;19.73;37.32;100976.56;4978936;28;45432;-78
2023/12/02 03:03:12;;;;;;;;;10.25;10.25;;;;;19.69;37.62;100970.81;4978790;28;45405;-79
2023/12/02 03:05:38;;;;;;;;;8.25;5.75;;;;;19.76;37.32;100992.09;4979074;28;45403;-80
2023/12/02 03:08:03;;;;;;;;;11.50;10.75;;;;;19.82;37.34;101003.84;4978405;28;47972;-80
2023/12/02 03:10:29;;;;;;;;;12.75;10.00;;;;;19.68;37.80;100987.63;4978684;28;45367;-81
2023/12/02 03:12:54;;;;;;;;;8.25;8.25;;;;;19.75;37.39;100994.91;4978346;28;45357;-80
2023/12/02 03:15:20;;;;;;;;;11.25;10.75;;;;;19.81;36.93;101005.66;4978576;28;45591;-80
2023/12/02 03:17:45;;;;;;;;;11.25;10.00;;;;;19.60;37.35;100971.75;4978408;28;47004;-79
2023/12/02 03:20:11;;;;;;;;;11.00;10.25;;;;;19.62;37.45;100983.00;4978423;28;45401;-79
2023/12/02 03:22:36;;;;;;;;;9.75;9.75;;;;;19.82;37.54;101014.41;4978595;28;45348;-80
2023/12/02 03:25:02;;;;;;;;;11.75;10.75;;;;;19.79;37.39;101010.28;4978597;28;45298;-80
2023/12/02 03:27:27;;;;;;;;;11.25;9.75;;;;;19.75;37.58;101001.00;4978041;28;46300;-80
2023/12/02 03:29:52;;;;;;;;;8.25;8.25;;;;;19.68;37.62;100992.06;4978243;28;50683;-78
2023/12/02 03:32:18;;;;;;;;;12.50;12.25;;;;;19.61;37.31;100982.19;4977557;28;56031;-79
2023/12/02 03:34:43;;;;;;;;;12.00;11.75;;;;;19.50;37.22;100966.63;4978395;28;45412;-80
2023/12/02 03:37:08;;;;;;;;;10.25;8.75;;;;;19.60;37.27;100995.50;4978047;28;46087;-80
2023/12/02 03:39:34;;;;;;;;;12.75;10.25;;;;;19.48;37.26;100966.78;4978214;28;45428;-80
2023/12/02 03:41:59;;;;;;;;;9.00;9.00;;;;;19.71;37.39;101015.53;4978090;28;45407;-80
2023/12/02 03:44:24;;;;;;;;;11.75;10.75;;;;;19.80;37.56;101019.81;4976861;28;45320;-79
2023/12/02 03:46:50;;;;;;;;;13.00;11.00;;;;;19.81;37.39;101023.31;4977458;28;45439;-79
2023/12/02 03:49:15;;;;;;;;;10.00;9.50;;;;;19.81;37.42;101025.94;4977243;28;51854;-78
2023/12/02 03:51:40;;;;;;;;;12.25;10.75;;;;;19.70;37.81;101012.03;4978118;28;45364;-79
2023/12/02 03:54:05;;;;;;;;;15.00;13.25;;;;;19.71;37.32;101015.53;4978022;28;45441;-79
2023/12/02 03:56:31;;;;;;;;;14.00;11.00;;;;;19.59;37.37;100999.16;4977374;28;45695;-80
2023/12/02 03:58:56;;;;;;;;;11.50;9.50;;;;;19.71;37.29;101020.81;4977693;28;50683;-79
2023/12/02 04:01:22;;;;;;;;;12.00;12.00;;;;;19.79;37.50;101026.09;4978115;28;45358;-79
2023/12/02 04:03:48;;;;;;;;;9.50;8.75;;;;;19.68;37.61;101005.28;4977923;28;45448;-79
2023/12/02 04:06:13;;;;;;;;;13.50;12.00;;;;;19.78;37.18;101028.91;4977654;28;47079;-79
2023/12/02 04:08:39;;;;;;;;;11.75;10.75;;;;;19.66;37.39;101009.91;4977673;28;45257;-79
2023/12/02 04:11:05;;;;;;;;;10.75;10.00;;;;;19.74;37.08;101028.41;4977550;28;45385;-79
2023/12/02 04:13:30;;;;;;;;;10.75;9.75;;;;;19.79;37.21;101030.56;4977583;28;45320;-80
2023/12/02 04:15:56;;;;;;;;;15.00;11.25;;;;;19.75;37.18;101034.53;4977795;28;46421;-79
2023/12/02 04:18:21;;;;;;;;;14.25;10.00;;;;;19.66;37.11;101026.56;4976326;28;45626;-79
2023/12/02 04:20:47;;;;;;;;;12.25;10.75;;;;;19.66;37.46;101023.94;4977790;28;45337;-80
2023/12/02 04:23:12;;;;;;;;;11.25;11.25;;;;;19.68;37.08;101031.66;4977603;28;45302;-80
2023/12/02 04:25:38;;;;;;;;;12.25;11.50;;;;;19.48;37.04;101006.38;4977026;28;45284;-79
2023/12/02 04:28:03;;;;;;;;;10.25;9.00;;;;;19.67;37.32;101038.75;4977416;28;45468;-79
2023/12/02 04:30:29;;;;;;;;;11.50;8.50;;;;;19.59;37.14;101025.56;4977479;28;45434;-79
2023/12/02 04:32:54;;;;;;;;;12.00;12.00;;;;;19.73;37.06;101053.13;4977161;28;45479;-80
2023/12/02 04:35:20;;;;;;;;;14.00;12.75;;;;;19.76;37.36;101058.09;4977270;28;45436;-79
2023/12/02 04:37:45;;;;;;;;;12.00;10.50;;;;;19.77;37.10;101066.84;4992190;28;45462;-80
2023/12/02 04:40:11;;;;;;;;;13.00;9.75;;;;;19.69;36.94;101055.28;4977173;28;45293;-79
2023/12/02 04:42:40;;;;;;;;;15.25;12.25;;;;;19.72;37.22;101062.88;4977368;28;45368;-80
2023/12/02 04:45:07;;;;;;;;;12.25;9.75;;;;;19.77;37.13;101064.22;4977011;28;46312;-79
2023/12/02 04:47:39;;;;;;;;;15.25;11.00;;;;;19.66;37.26;101055.59;4977211;28;45408;-80
2023/12/02 04:50:05;;;;;;;;;10.75;10.75;;;;;19.76;37.21;101073.94;4977268;28;45305;-79
2023/12/02 04:52:31;;;;;;;;;13.25;11.00;;;;;19.77;36.85;101077.41;4976927;28;45278;-79
2023/12/02 04:54:57;;;;;;;;;10.75;10.75;;;;;19.56;37.15;101046.97;4976765;28;45459;-80
2023/12/02 04:57:22;;;;;;;;;11.50;9.75;;;;;19.77;37.20;101082.69;4976845;28;45317;-80
2023/12/02 04:59:47;;;;;;;;;12.50;10.50;;;;;19.69;37.36;101070.28;4975253;28;46133;-79
2023/12/02 05:02:13;;;;;;;;;9.00;9.00;;;;;19.77;37.03;101080.06;4977030;28;45301;-79
2023/12/02 05:04:38;;;;;;;;;11.50;10.00;;;;;19.71;37.17;101071.78;4976976;28;45871;-79
2023/12/02 05:07:03;;;;;;;;;10.25;10.00;;;;;19.77;37.00;101094.09;4976859;28;45349;-79
2023/12/02 05:09:29;;;;;;;;;10.50;10.50;;;;;19.70;37.42;101091.25;4976685;28;45381;-79
2023/12/02 05:11:55;;;;;;;;;10.25;10.00;;;;;19.56;37.41;101068.94;4976939;28;45326;-79
2023/12/02 05:14:21;;;;;;;;;13.00;10.25;;;;;19.64;37.83;101083.97;4976641;28;47004;-79
2023/12/02 05:16:46;;;;;;;;;11.50;11.00;;;;;19.74;37.11;101104.97;4976719;28;45286;-80
2023/12/02 05:19:12;;;;;;;;;9.50;9.50;;;;;19.65;37.28;101095.38;4976719;28;45627;-79
2023/12/02 05:21:38;;;;;;;;;11.75;11.00;;;;;19.76;37.21;101113.56;4976689;28;45580;-79
2023/12/02 05:24:03;;;;;;;;;13.75;10.75;;;;;19.60;37.13;101099.28;4976267;28;47288;-79
2023/12/02 05:26:28;;;;;;;;;11.00;11.00;;;;;19.75;37.12;101116.38;4976572;28;45293;-80
2023/12/02 05:28:54;;;;;;;;;9.75;9.00;;;;;19.62;37.26;101101.78;4976766;28;45373;-80
2023/12/02 05:31:19;;;;;;;;;9.75;9.50;;;;;19.62;37.21;101107.88;4991664;28;45527;-80
2023/12/02 05:33:46;;;;;;;;;11.00;8.25;;;;;19.75;37.30;101135.66;4976234;28;45416;-79
2023/12/02 05:36:12;;;;;;;;;12.00;10.75;;;;;19.75;37.33;101134.84;4976470;28;45405;-79
2023/12/02 05:38:37;;;;;;;;;12.00;11.00;;;;;19.61;37.13;101113.31;4976019;28;45394;-79
2023/12/02 05:41:03;;;;;;;;;11.50;9.50;;;;;19.67;37.14;101130.34;4976496;28;45305;-80
2023/12/02 05:43:29;;;;;;;;;14.50;12.50;;;;;19.72;37.31;101141.25;4976312;28;47257;-80
2023/12/02 05:45:54;;;;;;;;;12.25;11.75;;;;;19.75;37.21;101140.94;4976367;28;45456;-79
2023/12/02 05:48:20;;;;;;;;;10.50;10.50;;;;;19.56;36.97;101120.88;4976327;28;47907;-79
2023/12/02 05:50:45;;;;;;;;;15.25;13.00;;;;;19.48;37.43;101109.31;4976296;28;45371;-80
2023/12/02 05:53:11;;;;;;;;;9.75;9.75;;;;;19.72;37.03;101152.63;4975896;28;45412;-80
2023/12/02 05:55:36;;;;;;;;;10.75;9.00;;;;;19.73;37.31;101156.09;4976199;28;45437;-80
2023/12/02 05:58:02;;;;;;;;;11.00;10.00;;;;;19.73;37.05;101162.22;4976427;28;45447;-79
2023/12/02 06:00:27;;;;;;;;;15.25;12.50;;;;;19.75;37.29;101171.81;4976229;28;45339;-79
2023/12/02 06:02:53;;;;;;;;;9.75;9.00;;;;;19.62;37.20;101155.38;4975962;28;45982;-79
2023/12/02 06:05:18;;;;;;;;;12.75;10.75;;;;;19.53;37.19;101143.13;4976130;28;45576;-79
2023/12/02 06:07:43;;;;;;;;;12.25;11.75;;;;;19.72;37.02;101181.66;4975823;28;45324;-80
2023/12/02 06:10:09;;;;;;;;;13.00;11.00;;;;;19.71;37.01;101177.41;4976342;28;45326;-80
2023/12/02 06:12:34;;;;;;;;;15.25;11.00;;;;;19.56;36.97;101161.31;4979263;28;45254;-79
2023/12/02 06:14:59;;;;;;;;;15.00;14.00;;;;;19.71;36.91;101187.13;4979493;28;45231;-80
2023/12/02 06:17:25;;;;;;;;;13.50;11.50;;;;;19.58;36.98;101164.63;4979379;28;48240;-80
2023/12/02 06:19:50;;;;;;;;;13.00;10.75;;;;;19.64;37.31;101179.00;4994467;28;45492;-80
2023/12/02 06:22:15;;;;;;;;;13.50;12.00;;;;;19.62;37.24;101180.97;4979118;28;46433;-79
2023/12/02 06:24:41;;;;;;;;;13.75;11.25;;;;;19.56;37.14;101182.41;4979367;28;45327;-80
2023/12/02 06:27:06;;;;;;;;;13.50;10.50;;;;;19.71;36.83;101209.06;4979395;28;45264;-80
2023/12/02 06:29:31;;;;;;;;;10.00;10.00;;;;;19.62;37.09;101191.53;4979405;28;45276;-79
2023/12/02 06:31:57;;;;;;;;;14.25;10.75;;;;;19.60;36.92;101185.56;4978911;28;46841;-79
2023/12/02 06:34:22;;;;;;;;;13.00;11.25;;;;;19.70;37.09;101211.84;4978787;28;45524;-79
2023/12/02 06:36:47;;;;;;;;;11.75;11.25;;;;;19.69;36.85;101213.69;4979045;28;45516;-79
2023/12/02 06:39:13;;;;;;;;;11.50;11.50;;;;;19.51;37.33;101187.34;4978911;28;45348;-79
2023/12/02 06:41:41;;;;;;;;;12.25;12.25;;;;;19.53;37.04;101189.81;4978878;28;53961;-79
2023/12/02 06:44:09;;;;;;;;;12.00;11.75;;;;;19.68;36.94;101219.94;4984475;28;45408;-79
2023/12/02 06:46:34;;;;;;;;;13.00;11.75;;;;;19.69;36.92;101224.25;4979043;28;45500;-80
2023/12/02 06:49:00;;;;;;;;;12.25;12.00;;;;;19.70;36.91;101231.16;4981287;28;45433;-80
2023/12/02 06:51:28;;;;;;;;;12.75;11.50;;;;;19.61;37.34;101219.75;4987784;28;45403;-80
2023/12/02 06:53:57;;;;;;;;;13.00;11.25;;;;;19.70;36.82;101238.25;4988126;28;45430;-79
2023/12/02 06:56:23;;;;;;;;;12.75;10.50;;;;;19.65;36.87;101238.72;4983165;28;45412;-79
2023/12/02 06:58:49;;;;;;;;;11.25;10.00;;;;;19.68;37.00;101241.06;4979585;28;45288;-78
2023/12/02 07:01:26;;;;;;;;;14.25;13.25;;;;;19.69;36.77;101248.00;4978716;28;46112;-75
2023/12/02 07:03:52;;;;;;;;;11.25;10.75;;;;;19.66;36.68;101250.13;4978688;28;45543;-79
2023/12/02 07:06:17;;;;;;;;;11.00;10.75;;;;;19.58;37.21;101243.78;4978476;28;45385;-79
2023/12/02 07:08:42;;;;;;;;;9.75;9.75;;;;;19.63;36.74;101261.81;4978953;28;45471;-80
2023/12/02 07:11:08;;;;;;;;;11.75;11.25;;;;;19.70;37.02;101270.75;4978117;28;45727;-74
2023/12/02 07:13:33;;;;;;;;;14.25;12.00;;;;;19.60;36.80;101247.09;4975010;28;45398;-76
2023/12/02 07:15:59;;;;;;;;;13.00;10.00;;;;;19.69;36.88;101265.66;4977901;28;45279;-76
2023/12/02 07:18:24;;;;;;;;;13.50;13.00;;;;;19.70;36.66;101276.03;4978339;28;45513;-74
2023/12/02 07:20:49;;;;;;;;;9.75;9.75;;;;;19.66;36.88;101271.22;4977224;28;65714;-76
2023/12/02 07:23:14;;;;;;;;;12.50;12.50;;;;;19.70;36.96;101280.50;4977653;28;53614;-75
2023/12/02 07:25:40;;;;;;;;;11.50;11.50;;;;;19.70;36.80;101291.88;4978642;28;45310;-75
2023/12/02 07:28:05;;;;;;;;;11.75;11.25;;;;;19.69;36.94;101295.53;4978513;28;45475;-75
2023/12/02 07:30:30;;;;;;;;;13.25;11.00;;;;;19.61;36.90;101282.25;4978217;28;45325;-76
2023/12/02 07:32:56;;;;;;;;;11.50;11.25;;;;;19.44;36.85;101270.75;4977782;28;48596;-76
2023/12/02 07:35:21;;;;;;;;;14.50;10.00;;;;;19.66;36.92;101306.38;4977829;28;45435;-75
2023/12/02 07:37:47;;;;;;;;;12.50;10.75;;;;;19.54;36.79;101282.06;4978231;28;45396;-76
2023/12/02 07:40:13;;;;;;;;;16.50;11.00;;;;;19.67;36.82;101308.03;4978219;28;46910;-76
2023/12/02 07:42:38;;;;;;;;;13.50;10.00;;;;;19.64;36.79;101311.00;4976787;28;45764;-76
2023/12/02 07:45:05;;;;;;;;;11.50;10.75;;;;;19.56;36.93;101297.72;4978215;28;45801;-76
2023/12/02 07:47:30;;;;;;;;;13.50;11.75;;;;;19.64;36.78;101312.81;4978240;28;45301;-73
2023/12/02 07:49:55;;;;;;;;;12.00;10.50;;;;;19.64;37.02;101318.91;4977688;28;45414;-76
2023/12/02 07:52:21;;;;;;;;;11.25;9.25;;;;;19.54;36.97;101305.81;4978009;28;45273;-75
2023/12/02 07:54:46;;;;;;;;;12.25;12.25;;;;;19.68;36.77;101333.44;4978126;28;45472;-77
2023/12/02 07:57:11;;;;;;;;;17.50;14.25;;;;;19.59;36.86;101323.81;4978000;28;45331;-76
2023/12/02 07:59:37;;;;;;;;;14.00;12.25;;;;;19.66;36.92;101338.06;4978028;28;45541;-76
2023/12/02 08:02:02;;;;;;;;;13.25;13.00;;;;;19.59;36.92;101337.84;4977567;28;59141;-75
2023/12/02 08:04:27;;;;;;;;;15.00;12.00;;;;;19.61;36.79;101335.06;4977778;28;45298;-76
2023/12/02 08:06:53;;;;;;;;;14.25;11.25;;;;;19.55;36.78;101333.84;4978039;28;45228;-75
2023/12/02 08:09:18;;;;;;;;;10.50;10.25;;;;;19.59;36.70;101340.50;4977607;28;45588;-76
2023/12/02 08:11:43;;;;;;;;;11.50;11.50;;;;;19.52;36.86;101331.50;4977715;28;45469;-76
2023/12/02 08:14:08;;;;;;;;;14.75;14.75;;;;;19.59;36.66;101344.94;4977803;28;45313;-76
2023/12/02 08:16:34;;;;;;;;;13.75;12.25;;;;;19.66;36.71;101361.81;4977736;28;45305;-76
2023/12/02 08:18:59;;;;;;;;;14.00;12.00;;;;;19.57;37.03;101353.00;4976018;28;47502;-76
2023/12/02 08:21:24;;;;;;;;;12.75;10.75;;;;;19.49;36.63;101335.25;4977424;28;45412;-76
2023/12/02 08:23:50;;;;;;;;;13.25;12.00;;;;;19.51;36.79;101330.69;4977589;28;45341;-76
2023/12/02 08:26:15;;;;;;;;;15.75;12.25;;;;;19.59;36.96;101351.06;4977715;28;45299;-76
2023/12/02 08:28:42;;;;;;;;;12.25;11.25;;;;;19.64;36.69;101363.78;4977369;28;50241;-76
2023/12/02 08:31:07;;;;;;;;;17.75;15.25;;;;;19.55;36.74;101348.84;4976838;28;45349;-76
2023/12/02 08:33:33;;;;;;;;;12.25;12.25;;;;;19.68;36.69;101380.13;4975081;28;45436;-76
2023/12/02 08:35:59;;;;;;;;;12.00;11.00;;;;;19.60;36.67;101365.06;4977430;28;45413;-76
2023/12/02 08:38:24;;;;;;;;;12.00;11.75;;;;;19.59;36.52;101371.34;4976971;28;45978;-76
2023/12/02 08:40:49;;;;;;;;;12.50;11.00;;;;;19.68;36.90;101386.25;4977246;28;45290;-76
2023/12/02 08:43:15;;;;;;;;;14.50;13.50;;;;;19.58;36.79;101372.31;4976872;28;52860;-75
2023/12/02 08:45:40;;;;;;;;;11.25;9.25;;;;;19.66;36.80;101384.75;4977023;28;45325;-76
2023/12/02 08:48:06;;;;;;;;;11.75;11.75;;;;;19.57;36.64;101373.31;4977148;28;45277;-76
2023/12/02 08:50:31;;;;;;;;;16.50;14.75;;;;;19.70;36.67;101391.38;4977079;28;45380;-76
2023/12/02 08:52:56;;;;;;;;;13.25;11.25;;;;;19.69;36.77;101395.00;4976994;28;45312;-75
2023/12/02 08:55:22;;;;;;;;;11.25;10.25;;;;;19.47;37.03;101360.16;4977197;28;45330;-75
2023/12/02 08:57:47;;;;;;;;;13.00;11.75;;;;;19.59;36.96;101381.88;4976910;28;46451;-75
2023/12/02 09:00:13;;;;;;;;;13.25;12.00;;;;;19.59;36.53;101376.59;4976541;28;45436;-75
2023/12/02 09:02:38;;;;;;;;;12.00;10.50;;;;;19.62;36.77;101395.59;4977042;28;45443;-76
2023/12/02 09:05:05;;;;;;;;;15.25;12.00;;;;;19.62;36.71;101387.69;4976964;28;45430;-77
2023/12/02 09:07:30;;;;;;;;;16.00;14.00;;;;;19.72;36.72;101414.00;4976893;28;46039;-76
2023/12/02 09:09:56;;;;;;;;;18.00;15.75;;;;;19.73;36.94;101414.84;4976458;28;52392;-76
2023/12/02 09:12:21;;;;;;;;;10.75;10.50;;;;;19.64;36.62;101413.13;4976757;28;45361;-76
2023/12/02 09:15:20;;;;;;;;;14.75;12.25;;;;;19.61;36.67;101414.25;4976560;28;45403;-76
2023/12/02 09:18:08;;;;;;;;;12.00;12.00;;;;;19.73;36.81;101431.50;4982691;28;46416;-76
2023/12/02 09:20:53;;;;;;;;;14.25;11.25;;;;;19.75;36.88;101433.19;4976491;28;45380;-78
2023/12/02 09:23:20;;;;;;;;;13.75;12.00;;;;;19.76;36.85;101445.38;4976745;28;45391;-76
2023/12/02 09:25:47;;;;;;;;;13.00;10.25;;;;;19.76;36.87;101448.88;4976502;28;45629;-75
2023/12/02 09:28:17;;;;;;;;;12.25;12.00;;;;;19.66;36.82;101433.09;4976571;28;45301;-75
2023/12/02 09:30:56;;;;;;;;;14.25;12.75;;;;;19.62;36.55;101426.47;4976092;28;45302;-76
2023/12/02 09:33:21;;;;;;;;;12.25;12.25;;;;;19.58;36.57;101414.53;4976238;28;45588;-75
2023/12/02 09:35:53;;;;;;;;;11.75;11.50;;;;;19.70;36.54;101431.81;4976252;28;45449;-76
2023/12/02 09:38:18;;;;;;;;;11.75;11.75;;;;;19.66;36.38;101427.81;4976187;28;45449;-76
2023/12/02 09:40:52;;;;;;;;;12.75;12.50;;;;;19.78;36.20;101449.53;4976366;28;45331;-76
2023/12/02 09:43:25;;;;;;;;;11.50;10.50;;;;;19.78;36.13;101446.91;4991632;28;45337;-75
2023/12/02 09:46:05;;;;;;;;;13.75;13.50;;;;;19.62;36.38;101431.75;4975880;28;45331;-76
2023/12/02 09:48:34;;;;;;;;;16.75;14.25;;;;;19.80;36.39;101460.78;4976194;28;46509;-75
2023/12/02 09:51:12;;;;;;;;;12.25;9.75;;;;;19.81;35.97;101473.00;4976341;28;45303;-75
2023/12/02 09:53:54;;;;;;;;;14.00;12.50;;;;;19.60;36.19;101438.97;4976199;28;45413;-75
2023/12/02 09:56:25;;;;;;;;;12.00;12.00;;;;;19.80;36.15;101479.25;4976125;28;45422;-75
2023/12/02 09:59:03;;;;;;;;;12.75;10.75;;;;;19.75;36.38;101467.50;4975762;28;46395;-75
2023/12/02 10:01:40;;;;;;;;;10.75;10.75;;;;;19.78;36.57;101468.03;4976062;28;45293;-76
2023/12/02 10:04:28;;;;;;;;;14.25;12.50;;;;;19.83;36.61;101476.31;4976246;28;45287;-76
2023/12/02 10:06:56;;;;;;;;;13.25;11.25;;;;;19.84;36.42;101477.16;4976213;28;45401;-76
2023/12/02 10:09:33;;;;;;;;;13.75;11.25;;;;;19.67;36.62;101455.88;4975883;28;46241;-76
2023/12/02 10:12:24;;;;;;;;;12.75;11.75;;;;;19.82;36.42;101476.50;4975995;28;45370;-76
2023/12/02 10:15:05;;;;;;;;;12.25;12.00;;;;;19.79;36.65;101474.16;4975698;28;45398;-76
2023/12/02 10:18:00;;;;;;;;;14.50;12.00;;;;;19.85;36.64;101490.22;4976077;28;45241;-76
2023/12/02 10:20:28;;;;;;;;;11.25;11.25;;;;;19.69;36.60;101466.28;4979076;28;45481;-75
2023/12/02 10:23:08;;;;;;;;;11.25;10.75;;;;;19.85;36.45;101487.56;4975810;28;45257;-75
2023/12/02 10:25:41;;;;;;;;;13.25;11.50;;;;;19.86;36.59;101496.31;4975993;28;45457;-74
2023/12/02 10:28:31;;;;;;;;;10.25;10.00;;;;;19.86;36.42;101488.41;4975536;28;45509;-75
2023/12/02 10:30:59;;;;;;;;;14.50;13.50;;;;;19.85;36.34;101492.03;4975713;28;45581;-74
2023/12/02 10:33:26;;;;;;;;;13.25;13.25;;;;;19.86;36.88;101501.59;4975198;28;45347;-75
2023/12/02 10:35:56;;;;;;;;;18.50;13.25;;;;;19.87;36.62;101487.44;4975755;28;45390;-76
2023/12/02 10:39:09;;;;;;;;;14.00;10.25;;;;;19.87;36.50;101494.53;4975316;28;45543;-77
2023/12/02 10:42:03;;;;;;;;;14.50;13.25;;;;;19.86;36.69;101493.69;4978710;28;45337;-75
2023/12/02 10:44:33;;;;;;;;;14.50;13.75;;;;;19.87;36.48;101483.97;4988045;28;46028;-76
2023/12/02 10:47:00;;;;;;;;;14.50;12.00;;;;;19.79;36.49;101472.34;4974967;28;45362;-76
2023/12/02 10:49:27;;;;;;;;;13.25;11.00;;;;;19.91;36.61;101488.78;4974718;28;45505;-72
2023/12/02 10:51:54;;;;;;;;;13.00;12.00;;;;;19.93;36.69;101486.81;4974473;28;46100;-72
2023/12/02 10:54:23;;;;;;;;;11.00;10.25;;;;;19.95;36.86;101487.53;4974277;28;45219;-75
2023/12/02 10:56:52;;;;;;;;;14.75;13.00;;;;;19.96;37.07;101489.16;4975187;28;45507;-70
2023/12/02 10:59:19;;;;;;;;;15.25;12.50;;;;;19.94;36.80;101488.50;4977523;28;45695;-68
2023/12/02 11:01:53;;;;;;;;;14.00;10.25;;;;;19.98;36.86;101485.56;4977339;28;46368;-69
2023/12/02 11:04:34;;;;;;;;;12.00;12.00;;;;;19.94;36.85;101475.28;4966334;28;45573;-73
2023/12/02 11:07:03;;;;;;;;;13.25;11.00;;;;;20.02;37.13;101484.25;4973548;28;45492;-72
2023/12/02 11:09:55;;;;;;;;;14.00;12.50;;;;;20.03;37.01;101481.47;4977857;28;45356;-73
2023/12/02 11:12:46;;;;;;;;;13.50;11.25;;;;;19.77;37.19;101439.97;4977048;28;46250;-73